createdAt,value
2022-09-26T00:01:43.610Z,100259.91
2022-09-26T00:04:22.670Z,100256.59
2022-09-26T00:06:55.255Z,100248.05
2022-09-26T00:09:25.758Z,100243.66
2022-09-26T00:11:54.459Z,100238.46
2022-09-26T00:14:25.777Z,100233.95
2022-09-26T00:16:54.460Z,100231.05
2022-09-26T00:19:23.857Z,100231.29
2022-09-26T00:21:52.509Z,100227.52
2022-09-26T00:24:21.068Z,100229.84
2022-09-26T00:26:49.683Z,100230.80
2022-09-26T00:29:18.185Z,100233.63
2022-09-26T00:31:48.410Z,100229.95
2022-09-26T00:34:19.251Z,100229.64
2022-09-26T00:36:49.753Z,100225.98
2022-09-26T00:39:18.377Z,100227.94
2022-09-26T00:41:46.865Z,100227.44
2022-09-26T00:44:40.649Z,100222.92
2022-09-26T00:47:21.291Z,100224.56
2022-09-26T00:49:52.781Z,100223.91
2022-09-26T00:52:26.335Z,100219.73
2022-09-26T00:54:59.064Z,100219.60
2022-09-26T00:57:33.171Z,100220.58
2022-09-26T01:00:05.447Z,100217.63
2022-09-26T01:02:34.707Z,100215.92
2022-09-26T01:05:07.001Z,100216.04
2022-09-26T01:07:35.895Z,100219.14
2022-09-26T01:10:06.511Z,100215.23
2022-09-26T01:12:37.539Z,100212.36
2022-09-26T01:15:09.227Z,100211.80
2022-09-26T01:17:39.785Z,100203.82
2022-09-26T01:20:24.360Z,100201.33
2022-09-26T01:23:24.395Z,100196.93
2022-09-26T01:26:19.778Z,100191.59
2022-09-26T01:29:08.220Z,100191.85
2022-09-26T01:32:06.434Z,100192.86
2022-09-26T01:34:43.574Z,100196.33
2022-09-26T01:37:22.344Z,100194.95
2022-09-26T01:40:03.019Z,100185.60
2022-09-26T01:42:39.650Z,100185.77
2022-09-26T01:45:17.559Z,100184.36
2022-09-26T01:47:55.305Z,100178.21
2022-09-26T01:50:31.362Z,100174.41
2022-09-26T01:53:05.272Z,100175.98
2022-09-26T01:55:40.234Z,100173.22
2022-09-26T01:58:14.049Z,100173.48
2022-09-26T02:00:46.858Z,100171.09
2022-09-26T02:03:19.073Z,100169.45
2022-09-26T02:05:52.628Z,100170.88
2022-09-26T02:08:26.450Z,100167.23
2022-09-26T02:11:01.685Z,100167.91
2022-09-26T02:13:35.242Z,100165.83
2022-09-26T02:16:07.912Z,100161.89
2022-09-26T02:18:41.076Z,100156.60
2022-09-26T02:21:14.610Z,100154.39
2022-09-26T02:23:43.387Z,100152.88
2022-09-26T02:26:11.976Z,100154.55
2022-09-26T02:28:42.783Z,100149.73
2022-09-26T02:31:19.933Z,100150.23
2022-09-26T02:33:49.510Z,100147.04
2022-09-26T02:36:20.582Z,100141.21
2022-09-26T02:38:49.101Z,100135.75
2022-09-26T02:41:45.830Z,100131.74
2022-09-26T02:44:30.042Z,100131.95
2022-09-26T02:47:17.421Z,100128.12
2022-09-26T02:50:02.402Z,100129.60
2022-09-26T02:52:42.617Z,100130.89
2022-09-26T02:55:20.672Z,100130.76
2022-09-26T02:58:05.137Z,100129.37
2022-09-26T03:00:48.232Z,100127.33
2022-09-26T03:03:22.355Z,100123.40
2022-09-26T03:05:54.725Z,100125.00
2022-09-26T03:08:26.859Z,100122.93
2022-09-26T03:11:02.068Z,100122.44
2022-09-26T03:13:35.671Z,100122.13
2022-09-26T03:16:06.257Z,100111.40
2022-09-26T03:18:40.160Z,100110.52
2022-09-26T03:21:09.377Z,100107.84
2022-09-26T03:23:38.647Z,100106.45
2022-09-26T03:26:12.109Z,100106.78
2022-09-26T03:28:47.536Z,100105.78
2022-09-26T03:31:21.794Z,100098.78
2022-09-26T03:33:55.689Z,100100.16
2022-09-26T03:36:24.345Z,100097.80
2022-09-26T03:38:53.018Z,100094.34
2022-09-26T03:41:44.620Z,100094.33
2022-09-26T03:44:30.016Z,100091.16
2022-09-26T03:47:16.619Z,100090.12
2022-09-26T03:49:46.646Z,100090.27
2022-09-26T03:52:15.194Z,100086.76
2022-09-26T03:54:45.182Z,100081.62
2022-09-26T03:57:15.006Z,100076.70
2022-09-26T03:59:54.598Z,100071.92
2022-09-26T04:02:23.194Z,100068.55
2022-09-26T04:04:57.392Z,100063.44
2022-09-26T04:07:26.173Z,100059.75
2022-09-26T04:09:54.740Z,100057.55
2022-09-26T04:12:23.226Z,100059.67
2022-09-26T04:14:53.789Z,100053.64
2022-09-26T04:17:23.752Z,100052.78
2022-09-26T04:19:52.119Z,100052.24
2022-09-26T04:22:20.854Z,100054.45
2022-09-26T04:24:50.973Z,100052.55
2022-09-26T04:27:23.110Z,100054.33
2022-09-26T04:29:51.639Z,100057.21
2022-09-26T04:32:38.135Z,100055.17
2022-09-26T04:35:26.741Z,100049.86
2022-09-26T04:37:55.213Z,100051.95
2022-09-26T04:40:23.799Z,100058.73
2022-09-26T04:43:01.302Z,100058.19
2022-09-26T04:45:29.836Z,100057.45
2022-09-26T04:47:58.315Z,100058.19
2022-09-26T04:50:28.310Z,100059.66
2022-09-26T04:53:06.705Z,100054.94
2022-09-26T04:55:38.788Z,100058.33
2022-09-26T04:58:07.181Z,100056.80
2022-09-26T05:00:35.713Z,100055.99
2022-09-26T05:03:09.110Z,100058.89
2022-09-26T05:05:38.585Z,100073.92
2022-09-26T05:08:07.301Z,100068.35
2022-09-26T05:10:35.757Z,100066.95
2022-09-26T05:13:04.310Z,100063.55
2022-09-26T05:15:39.253Z,100057.93
2022-09-26T05:18:10.722Z,100057.10
2022-09-26T05:20:39.651Z,100050.42
2022-09-26T05:23:10.064Z,100051.42
2022-09-26T05:25:59.507Z,100049.98
2022-09-26T05:28:28.007Z,100044.31
2022-09-26T05:30:56.673Z,100044.63
2022-09-26T05:33:25.371Z,100042.33
2022-09-26T05:35:54.206Z,100043.17
2022-09-26T05:38:22.727Z,100038.98
2022-09-26T05:40:57.613Z,100037.22
2022-09-26T05:43:28.939Z,100032.61
2022-09-26T05:45:59.507Z,100040.80
2022-09-26T05:48:32.052Z,100037.30
2022-09-26T05:51:10.347Z,100040.77
2022-09-26T05:53:43.046Z,100041.06
2022-09-26T05:56:18.249Z,100037.85
2022-09-26T05:59:06.434Z,100030.84
2022-09-26T06:01:54.288Z,100028.25
2022-09-26T06:04:31.676Z,100027.75
2022-09-26T06:07:13.541Z,100026.89
2022-09-26T06:09:44.057Z,100027.70
2022-09-26T06:12:18.979Z,100030.52
2022-09-26T06:14:47.403Z,100034.55
2022-09-26T06:17:15.900Z,100035.97
2022-09-26T06:19:45.075Z,100043.77
2022-09-26T06:22:13.972Z,100036.39
2022-09-26T06:24:42.592Z,100029.83
2022-09-26T06:27:13.405Z,100034.67
2022-09-26T06:29:43.071Z,100032.84
2022-09-26T06:32:11.763Z,100031.22
2022-09-26T06:34:43.190Z,100043.36
2022-09-26T06:37:32.166Z,100042.52
2022-09-26T06:40:02.476Z,100047.71
2022-09-26T06:42:37.433Z,100045.67
2022-09-26T06:45:21.189Z,100043.14
2022-09-26T06:48:11.400Z,100041.05
2022-09-26T06:51:00.161Z,100043.81
2022-09-26T06:53:30.240Z,100040.70
2022-09-26T06:55:59.884Z,100037.35
2022-09-26T06:58:28.676Z,100032.60
2022-09-26T07:01:08.167Z,100035.67
2022-09-26T07:03:45.986Z,100032.76
2022-09-26T07:06:28.463Z,100029.73
2022-09-26T07:09:03.176Z,100034.70
2022-09-26T07:12:14.243Z,100029.34
2022-09-26T07:14:43.087Z,100029.48
2022-09-26T07:17:32.452Z,100033.14
2022-09-26T07:20:20.470Z,100037.61
2022-09-26T07:23:08.062Z,100039.22
2022-09-26T07:25:38.937Z,100037.09
2022-09-26T07:28:09.467Z,100035.55
2022-09-26T07:30:59.070Z,100032.19
2022-09-26T07:33:47.881Z,100033.11
2022-09-26T07:36:17.897Z,100032.92
2022-09-26T07:38:48.738Z,100029.78
2022-09-26T07:41:18.722Z,100034.25
2022-09-26T07:46:55.124Z,100023.55
2022-09-26T07:49:42.840Z,100020.11
2022-09-26T07:52:37.421Z,100022.14
2022-09-26T07:55:25.913Z,100016.02
2022-09-26T07:58:13.082Z,100016.14
2022-09-26T08:01:00.004Z,100010.73
2022-09-26T08:03:47.970Z,100008.36
2022-09-26T08:06:36.689Z,100009.95
2022-09-26T08:09:05.456Z,100010.05
2022-09-26T08:11:52.691Z,100011.26
2022-09-26T08:14:40.015Z,100009.38
2022-09-26T08:17:32.044Z,100005.12
2022-09-26T08:20:01.141Z,100002.45
2022-09-26T08:22:30.397Z,100005.61
2022-09-26T08:25:00.254Z,100003.69
2022-09-26T08:27:47.987Z,100000.34
2022-09-26T08:30:17.287Z,99998.39
2022-09-26T08:32:53.424Z,99998.79
2022-09-26T08:35:22.062Z,99990.65
2022-09-26T08:38:16.793Z,99993.50
2022-09-26T08:40:55.547Z,99995.43
2022-09-26T08:43:52.069Z,99998.89
2022-09-26T08:46:51.019Z,100010.78
2022-09-26T08:49:42.183Z,100003.77
2022-09-26T08:52:29.355Z,99998.40
2022-09-26T08:55:01.155Z,99992.84
2022-09-26T08:57:36.586Z,99995.10
2022-09-26T09:00:18.285Z,99993.08
2022-09-26T09:03:01.280Z,99987.88
2022-09-26T09:05:33.796Z,99984.03
2022-09-26T09:08:08.840Z,99981.35
2022-09-26T09:10:53.292Z,99976.35
2022-09-26T09:13:48.436Z,99978.81
2022-09-26T09:16:41.587Z,99978.80
2022-09-26T09:19:39.919Z,99972.39
2022-09-26T09:23:12.103Z,99972.71
2022-09-26T09:25:54.607Z,99974.44
2022-09-26T09:28:34.316Z,99972.56
2022-09-26T09:31:06.268Z,99973.63
2022-09-26T09:34:08.937Z,99971.95
2022-09-26T09:37:02.446Z,99968.98
2022-09-26T09:39:50.810Z,99970.30
2022-09-26T09:42:36.515Z,99972.55
2022-09-26T09:45:16.575Z,99968.59
2022-09-26T09:47:46.691Z,99968.04
2022-09-26T09:50:25.415Z,99964.27
2022-09-26T09:53:05.650Z,99964.42
2022-09-26T09:55:46.675Z,99959.38
2022-09-26T09:58:29.204Z,99959.10
2022-09-26T10:01:09.211Z,99954.23
2022-09-26T10:03:43.528Z,99952.99
2022-09-26T10:06:45.245Z,99956.06
2022-09-26T10:09:39.242Z,99952.32
2022-09-26T10:12:23.081Z,99950.50
2022-09-26T10:15:19.360Z,99949.58
2022-09-26T10:18:27.049Z,99951.50
2022-09-26T10:21:27.940Z,99949.30
2022-09-26T10:23:58.457Z,99943.29
2022-09-26T10:26:44.198Z,99942.63
2022-09-26T10:29:24.016Z,99937.54
2022-09-26T10:31:59.717Z,99940.85
2022-09-26T10:34:30.706Z,99941.52
2022-09-26T10:37:20.903Z,99937.03
2022-09-26T10:40:12.328Z,99931.84
2022-09-26T10:42:46.069Z,99932.27
2022-09-26T10:45:19.797Z,99927.17
2022-09-26T10:48:21.500Z,99925.40
2022-09-26T10:51:14.468Z,99928.46
2022-09-26T10:53:51.455Z,99927.36
2022-09-26T10:56:26.553Z,99923.59
2022-09-26T10:58:59.612Z,99926.73
2022-09-26T11:01:30.832Z,99930.10
2022-09-26T11:04:36.383Z,99927.25
2022-09-26T11:07:29.808Z,99929.31
2022-09-26T11:10:24.752Z,99927.13
2022-09-26T11:13:18.309Z,99929.04
2022-09-26T11:16:00.559Z,99926.52
2022-09-26T11:18:40.117Z,99924.89
2022-09-26T11:21:28.265Z,99925.71
2022-09-26T11:24:10.969Z,99925.61
2022-09-26T11:26:49.019Z,99922.15
2022-09-26T11:29:24.167Z,99912.56
2022-09-26T11:32:05.089Z,99908.83
2022-09-26T11:35:02.362Z,99906.30
2022-09-26T11:37:50.147Z,99908.36
2022-09-26T11:40:35.308Z,99902.45
2022-09-26T11:43:14.993Z,99897.82
2022-09-26T11:45:58.893Z,99899.30
2022-09-26T11:49:34.590Z,99901.89
2022-09-26T11:52:57.816Z,99898.27
2022-09-26T11:55:32.786Z,99901.22
2022-09-26T11:58:11.067Z,99898.48
2022-09-26T12:00:50.949Z,99900.23
2022-09-26T12:03:45.016Z,99894.79
2022-09-26T12:06:25.336Z,99893.59
2022-09-26T12:09:18.321Z,99887.68
2022-09-26T12:11:59.448Z,99890.60
2022-09-26T12:14:42.517Z,99892.94
2022-09-26T12:17:19.555Z,99886.88
2022-09-26T12:19:57.434Z,99881.33
2022-09-26T12:22:34.416Z,99878.65
2022-09-26T12:25:29.918Z,99880.47
2022-09-26T12:28:11.166Z,99875.39
2022-09-26T12:30:48.374Z,99873.39
2022-09-26T12:33:49.730Z,99868.85
2022-09-26T12:36:30.620Z,99862.30
2022-09-26T12:39:16.794Z,99860.09
2022-09-26T12:42:03.893Z,99859.40
2022-09-26T12:44:55.141Z,99856.77
2022-09-26T12:47:42.814Z,99856.81
2022-09-26T12:50:24.422Z,99850.81
2022-09-26T12:53:25.852Z,99849.33
2022-09-26T12:56:05.639Z,99847.10
2022-09-26T12:58:45.509Z,99850.98
2022-09-26T13:01:30.470Z,99848.15
2022-09-26T13:04:23.490Z,99842.70
2022-09-26T13:07:18.870Z,99836.27
2022-09-26T13:10:15.355Z,99836.98
2022-09-26T13:13:02.513Z,99833.92
2022-09-26T13:15:39.429Z,99834.58
2022-09-26T13:18:15.618Z,99836.50
2022-09-26T13:20:49.397Z,99837.92
2022-09-26T13:23:26.840Z,99840.60
2022-09-26T13:26:00.077Z,99837.69
2022-09-26T13:28:37.175Z,99836.41
2022-09-26T13:31:18.379Z,99838.00
2022-09-26T13:33:52.329Z,99839.27
2022-09-26T13:36:22.555Z,99836.80
2022-09-26T13:38:58.425Z,99839.14
2022-09-26T13:41:38.072Z,99838.44
2022-09-26T13:44:22.305Z,99836.84
2022-09-26T13:47:01.147Z,99837.20
2022-09-26T13:49:43.097Z,99834.67
2022-09-26T13:52:27.586Z,99828.23
2022-09-26T13:55:01.467Z,99830.83
2022-09-26T13:57:38.247Z,99827.19
2022-09-26T14:00:40.191Z,99822.13
2022-09-26T14:03:44.258Z,99817.13
2022-09-26T14:06:33.099Z,99815.41
2022-09-26T14:09:27.541Z,99814.23
2022-09-26T14:12:33.965Z,99811.25
2022-09-26T14:15:23.586Z,99808.13
2022-09-26T14:18:07.028Z,99804.44
2022-09-26T14:20:50.653Z,99808.84
2022-09-26T14:23:34.664Z,99808.55
2022-09-26T14:26:07.896Z,99804.33
2022-09-26T14:28:38.641Z,99803.07
2022-09-26T14:31:43.638Z,99801.52
2022-09-26T14:34:22.242Z,99803.81
2022-09-26T14:36:52.823Z,99808.48
2022-09-26T14:39:31.419Z,99807.29
2022-09-26T14:42:08.312Z,99808.80
2022-09-26T14:44:38.478Z,99808.92
2022-09-26T14:47:15.901Z,99810.27
2022-09-26T14:49:54.123Z,99811.11
2022-09-26T14:52:24.701Z,99810.52
2022-09-26T14:55:00.453Z,99811.19
2022-09-26T14:57:32.770Z,99804.21
2022-09-26T15:00:22.414Z,99810.05
2022-09-26T15:03:00.261Z,99809.32
2022-09-26T15:05:31.250Z,99807.15
2022-09-26T15:08:00.661Z,99805.48
2022-09-26T15:10:41.213Z,99805.24
2022-09-26T15:13:21.916Z,99802.85
2022-09-26T15:15:57.763Z,99800.42
2022-09-26T15:18:37.196Z,99799.65
2022-09-26T15:21:18.350Z,99797.65
2022-09-26T15:23:49.758Z,99794.97
2022-09-26T15:26:21.811Z,99792.95
2022-09-26T15:28:52.184Z,99793.90
2022-09-26T15:31:27.627Z,99794.75
2022-09-26T15:34:01.489Z,99801.08
2022-09-26T15:36:31.602Z,99818.71
2022-09-26T15:39:01.458Z,99821.50
2022-09-26T15:41:48.518Z,99818.31
2022-09-26T15:44:30.423Z,99814.29
2022-09-26T15:46:59.271Z,99815.39
2022-09-26T15:49:28.114Z,99814.17
2022-09-26T15:51:57.430Z,99817.14
2022-09-26T15:54:30.487Z,99818.92
2022-09-26T15:57:02.271Z,99814.20
2022-09-26T15:59:38.582Z,99816.73
2022-09-26T16:02:25.688Z,99814.48
2022-09-26T16:04:55.253Z,99814.48
2022-09-26T16:07:27.388Z,99816.23
2022-09-26T16:09:57.634Z,99811.61
2022-09-26T16:12:29.211Z,99812.02
2022-09-26T16:15:03.058Z,99813.13
2022-09-26T16:17:35.238Z,99813.34
2022-09-26T16:20:21.444Z,99807.33
2022-09-26T16:22:51.431Z,99808.15
2022-09-26T16:25:52.212Z,99807.30
2022-09-26T16:28:36.997Z,99811.61
2022-09-26T16:31:23.775Z,99811.86
2022-09-26T16:33:54.708Z,99812.80
2022-09-26T16:36:25.231Z,99809.14
2022-09-26T16:38:56.437Z,99809.18
2022-09-26T16:41:56.140Z,99807.12
2022-09-26T16:44:27.380Z,99814.06
2022-09-26T16:47:01.073Z,99816.05
2022-09-26T16:49:42.345Z,99819.09
2022-09-26T16:52:24.563Z,99821.35
2022-09-26T16:54:53.457Z,99826.10
2022-09-26T16:57:26.142Z,99829.08
2022-09-26T17:00:17.455Z,99829.94
2022-09-26T17:02:46.721Z,99833.08
2022-09-26T17:05:18.832Z,99830.38
2022-09-26T17:07:49.619Z,99825.77
2022-09-26T17:10:19.546Z,99822.88
2022-09-26T17:12:50.850Z,99821.25
2022-09-26T17:15:25.931Z,99824.07
2022-09-26T17:18:00.510Z,99821.16
2022-09-26T17:20:29.542Z,99823.80
2022-09-26T17:22:58.291Z,99824.99
2022-09-26T17:25:27.143Z,99826.02
2022-09-26T17:27:58.982Z,99828.96
2022-09-26T17:30:28.942Z,99829.97
2022-09-26T17:32:58.480Z,99830.08
2022-09-26T17:35:31.419Z,99830.75
2022-09-26T17:38:00.491Z,99835.90
2022-09-26T17:40:31.461Z,99834.48
2022-09-26T17:43:01.502Z,99832.70
2022-09-26T17:45:33.329Z,99834.65
2022-09-26T17:48:04.911Z,99839.95
2022-09-26T17:50:34.923Z,99834.48
2022-09-26T17:53:03.763Z,99832.70
2022-09-26T17:55:32.958Z,99832.65
2022-09-26T17:58:04.466Z,99830.52
2022-09-26T18:00:38.324Z,99831.22
2022-09-26T18:03:10.688Z,99830.66
2022-09-26T18:05:39.937Z,99831.88
2022-09-26T18:08:16.741Z,99828.28
2022-09-26T18:10:49.555Z,99828.06
2022-09-26T18:13:25.527Z,99828.74
2022-09-26T18:15:55.169Z,99828.21
2022-09-26T18:18:27.260Z,99825.67
2022-09-26T18:20:58.156Z,99821.07
2022-09-26T18:23:29.231Z,99820.11
2022-09-26T18:25:59.318Z,99822.71
2022-09-26T18:28:28.200Z,99825.15
2022-09-26T18:31:00.250Z,99823.35
2022-09-26T18:33:35.774Z,99819.97
2022-09-26T18:36:12.010Z,99817.59
2022-09-26T18:38:40.728Z,99813.41
2022-09-26T18:41:11.078Z,99813.84
2022-09-26T18:43:41.804Z,99814.06
2022-09-26T18:46:13.382Z,99812.50
2022-09-26T18:48:42.502Z,99811.64
2022-09-26T18:51:12.110Z,99809.55
2022-09-26T18:53:41.443Z,99811.51
2022-09-26T18:56:29.502Z,99816.48
2022-09-26T18:58:58.269Z,99815.98
2022-09-26T19:01:30.092Z,99814.59
2022-09-26T19:04:00.903Z,99812.34
2022-09-26T19:06:34.308Z,99811.88
2022-09-26T19:09:05.689Z,99814.84
2022-09-26T19:11:35.611Z,99813.72
2022-09-26T19:14:13.207Z,99813.69
2022-09-26T19:16:44.596Z,99811.84
2022-09-26T19:19:14.003Z,99813.89
2022-09-26T19:21:46.214Z,99810.83
2022-09-26T19:24:20.870Z,99811.45
2022-09-26T19:26:54.072Z,99809.94
2022-09-26T19:29:29.905Z,99813.89
2022-09-26T19:31:58.924Z,99813.29
2022-09-26T19:34:32.526Z,99814.41
2022-09-26T19:37:02.459Z,99812.88
2022-09-26T19:39:31.838Z,99816.69
2022-09-26T19:42:01.117Z,99816.60
2022-09-26T19:44:29.740Z,99814.78
2022-09-26T19:46:59.251Z,99814.52
2022-09-26T19:49:30.581Z,99812.48
2022-09-26T19:52:00.580Z,99808.17
2022-09-26T19:54:29.322Z,99806.51
2022-09-26T19:56:58.387Z,99804.15
2022-09-26T19:59:27.753Z,99803.17
2022-09-26T20:01:56.584Z,99802.09
2022-09-26T20:04:26.623Z,99798.34
2022-09-26T20:06:55.033Z,99798.96
2022-09-26T20:09:23.410Z,99807.20
2022-09-26T20:11:52.773Z,99804.67
2022-09-26T20:14:24.038Z,99797.35
2022-09-26T20:16:55.106Z,99799.20
2022-09-26T20:19:35.659Z,99792.67
2022-09-26T20:22:06.881Z,99790.73
2022-09-26T20:24:37.866Z,99794.85
2022-09-26T20:27:10.476Z,99787.95
2022-09-26T20:29:57.308Z,99785.86
2022-09-26T20:32:25.924Z,99781.23
2022-09-26T20:34:59.741Z,99774.13
2022-09-26T20:37:31.141Z,99776.40
2022-09-26T20:51:00.060Z,99774.05
2022-09-26T20:53:31.959Z,99771.26
2022-09-26T20:56:04.175Z,99769.88
2022-09-26T20:58:36.023Z,99771.02
2022-09-26T21:01:12.039Z,99774.82
2022-09-26T21:03:46.925Z,99774.20
2022-09-26T21:06:21.196Z,99775.02
2022-09-26T21:08:53.376Z,99777.13
2022-09-26T21:11:25.593Z,99778.85
2022-09-26T21:13:57.576Z,99779.00
2022-09-26T21:16:29.563Z,99781.95
2022-09-26T21:19:01.819Z,99780.86
2022-09-26T21:21:33.664Z,99778.70
2022-09-26T21:24:24.815Z,99774.42
2022-09-26T21:26:57.397Z,99771.36
2022-09-26T21:29:29.887Z,99767.08
2022-09-26T21:32:04.602Z,99765.63
2022-09-26T21:34:38.837Z,99767.23
2022-09-26T21:37:12.308Z,99766.52
2022-09-26T21:39:44.177Z,99764.05
2022-09-26T21:42:16.451Z,99767.44
2022-09-26T21:44:54.260Z,99768.52
2022-09-26T21:47:26.637Z,99769.46
2022-09-26T21:49:58.485Z,99771.48
2022-09-26T21:52:37.015Z,99767.04
2022-09-26T21:55:13.934Z,99766.84
2022-09-26T21:57:48.130Z,99767.87
2022-09-26T22:00:20.064Z,99773.30
2022-09-26T22:02:52.001Z,99775.40
2022-09-26T22:05:23.983Z,99772.27
2022-09-26T22:07:57.430Z,99764.67
2022-09-26T22:10:29.799Z,99763.09
2022-09-26T22:13:01.720Z,99756.69
2022-09-26T22:15:33.570Z,99758.42
2022-09-26T22:18:05.931Z,99752.74
2022-09-26T22:20:38.228Z,99748.27
2022-09-26T22:23:10.107Z,99751.06
2022-09-26T22:25:43.004Z,99748.64
2022-09-26T22:28:14.924Z,99751.15
2022-09-26T22:30:46.833Z,99751.02
2022-09-26T22:33:20.095Z,99750.19
2022-09-26T22:35:52.605Z,99746.04
2022-09-26T22:38:24.447Z,99741.34
2022-09-26T22:41:00.758Z,99741.52
2022-09-26T22:43:34.038Z,99738.22
2022-09-26T22:46:08.749Z,99738.58
2022-09-26T22:48:42.888Z,99736.11
2022-09-26T22:51:15.449Z,99732.42
2022-09-26T22:53:47.562Z,99734.92
2022-09-26T22:56:20.071Z,99734.60
2022-09-26T22:58:53.474Z,99730.08
2022-09-26T23:01:28.846Z,99728.11
2022-09-26T23:04:01.337Z,99721.98
2022-09-26T23:06:34.039Z,99724.86
2022-09-26T23:09:08.876Z,99723.95
2022-09-26T23:11:41.059Z,99719.39
2022-09-26T23:14:12.832Z,99717.99
2022-09-26T23:16:44.658Z,99720.12
2022-09-26T23:19:16.952Z,99720.31
2022-09-26T23:21:49.168Z,99718.15
2022-09-26T23:24:21.391Z,99717.16
2022-09-26T23:26:53.320Z,99713.68
2022-09-26T23:29:25.438Z,99709.79
2022-09-26T23:31:57.991Z,99712.23
2022-09-26T23:34:29.738Z,99707.48
2022-09-26T23:37:01.595Z,99709.77
2022-09-26T23:39:33.474Z,99706.61
2022-09-26T23:42:05.448Z,99708.30
2022-09-26T23:44:37.313Z,99710.36
2022-09-26T23:47:11.527Z,99707.00
2022-09-26T23:49:43.338Z,99705.73
2022-09-26T23:52:15.194Z,99705.56
2022-09-26T23:54:47.273Z,99703.45
2022-09-26T23:57:19.052Z,99696.36
2022-09-26T23:59:50.824Z,99689.86
